Create Custom Reports and Graphics: Custom Report

Kelseyville Remote

Current Conditions

4/19/21 6:00 PM (-07:00)
Updated Every 15 Minutes
Temp 75.1 °F   4.7
RH 23 %   10
Dew Pt 34.6 °F   10.9
Wet Bulb 52.9 °F   1.6
BatVolt 13.5 V   0.1
Monthly Rain 0.00 In
Seasonal Rainfall 7.61 In

Today & Yesterday

Kelseyville Remote

4/19/21 6:00 PM (-07:00)
Updated Every 15 Minutes
Daily Max Temp 84.8 °F   2.0
Time of Max Temp 1443
Daily Min Temp 39.8 °F   5.1
Time of Min Temp 0604
Daily Rain 0.00 In
Yesterday's Max Temp 86.8 °F
Yesterday’s Min Temp 34.7 °F
Yesterday's Rainfall 0.00 In

Last 7 Days

Kelseyville Remote

Hourly Data | America/Los_Angeles
as of 4/19/21 6:14 PM PDT
Date & Time Temp (°F) RH (%) Dew Pt (°F) Wet Bulb (°F) BatVolt (V) Latest Rain (In) Daily Rain (In) Daily Min Temp (°F) Daily Max Temp (°F)
4/19/21 - 1800 75.3 23 35.0 53.1 13.5 0.00 0.00 39.8 84.8
4/19/21 - 1700 79.2 21 36.3 54.6 13.5 0.00 0.00 39.8 84.8
4/19/21 - 1600 82.0 18 33.9 54.6 13.5 0.00 0.00 39.8 84.8
4/19/21 - 1500 83.2 14 28.4 53.5 13.5 0.00 0.00 39.8 84.8
4/19/21 - 1400 81.6 15 29.2 53.2 13.5 0.00 0.00 39.8 83.2
4/19/21 - 1300 78.2 21 34.5 53.8 13.5 0.00 0.00 39.8 80.7
4/19/21 - 1200 74.6 24 35.8 53.1 13.6 0.00 0.00 39.8 76.8
4/19/21 - 1100 69.6 29 35.7 51.6 13.6 0.00 0.00 39.8 71.8
4/19/21 - 1000 68.1 31 36.2 51.2 13.7 0.00 0.00 39.8 70.2
4/19/21 - 0900 61.4 38 35.7 48.5 13.8 0.00 0.00 39.8 65.5
4/19/21 - 0800 48.5 55 32.7 41.5 14.0 0.00 0.00 39.8 54.9
4/19/21 - 0700 40.5 70 31.4 36.8 12.9 0.00 0.00 39.8 53.0
4/19/21 - 0600 41.0 69 31.6 37.2 12.8 0.00 0.00 40.3 53.0
4/19/21 - 0500 42.0 65 31.2 37.6 12.8 0.00 0.00 41.4 53.0
4/19/21 - 0400 43.6 65 32.4 38.9 12.9 0.00 0.00 42.3 53.0
4/19/21 - 0300 45.4 58 31.4 39.5 12.9 0.00 0.00 43.8 53.0
4/19/21 - 0200 49.0 49 30.6 41.1 12.9 0.00 0.00 46.5 53.0
4/19/21 - 0100 53.2 42 30.7 43.2 12.9 0.00 0.00 34.7 86.8
4/19/21 - 0000 54.6 40 31.1 43.9 13.0 0.00 0.00 34.7 86.8
4/18/21 - 2300 58.3 36 31.1 45.6 13.0 0.00 0.00 34.7 86.8
4/18/21 - 2200 61.0 32 30.9 46.7 13.0 0.00 0.00 34.7 86.8
4/18/21 - 2100 66.5 23 27.3 47.8 13.1 0.00 0.00 34.7 86.8
4/18/21 - 2000 74.0 16 25.0 49.8 13.1 0.00 0.00 34.7 86.8
4/18/21 - 1900 78.5 14 25.2 51.3 13.6 0.00 0.00 34.7 86.8
4/18/21 - 1800 81.1 13 25.1 52.0 13.4 0.00 0.00 34.7 86.8
4/18/21 - 1700 84.8 12 25.9 53.2 13.4 0.00 0.00 34.7 86.8
4/18/21 - 1600 85.6 10 22.2 52.6 13.4 0.00 0.00 34.7 86.8
4/18/21 - 1500 85.0 9 19.6 52.0 13.4 0.00 0.00 34.7 86.1
4/18/21 - 1400 83.1 9 17.9 51.2 13.5 0.00 0.00 34.7 84.5
4/18/21 - 1300 81.2 13 25.5 52.2 13.5 0.00 0.00 34.7 82.7
4/18/21 - 1200 75.3 21 32.5 52.3 13.6 0.00 0.00 34.7 79.5
4/18/21 - 1100 69.5 33 38.9 52.7 13.7 0.00 0.00 34.7 72.9
4/18/21 - 1000 66.5 28 32.1 49.2 13.8 0.00 0.00 34.7 71.0
4/18/21 - 0900 57.7 38 31.9 45.6 13.9 0.00 0.00 34.7 63.4
4/18/21 - 0800 43.9 60 30.5 38.3 14.0 0.00 0.00 34.7 51.5
4/18/21 - 0700 35.7 77 29.1 33.2 12.8 0.00 0.00 34.7 43.2
4/18/21 - 0600 36.7 73 29.0 33.7 12.8 0.00 0.00 35.2 43.2
4/18/21 - 0500 37.7 72 29.5 34.5 12.8 0.00 0.00 36.7 43.2
4/18/21 - 0400 38.9 70 30.1 35.4 12.8 0.00 0.00 37.9 43.2
4/18/21 - 0300 39.8 70 30.9 36.2 12.8 0.00 0.00 38.8 43.2
4/18/21 - 0200 41.4 65 30.4 37.0 12.9 0.00 0.00 40.5 43.2
4/18/21 - 0100 46.0 57 31.4 39.8 12.9 0.00 0.00 35.9 80.6
4/18/21 - 0000 49.2 46 29.4 40.8 13.0 0.00 0.00 35.9 80.6
4/17/21 - 2300 52.0 44 30.6 42.6 13.0 0.00 0.00 35.9 80.6
4/17/21 - 2200 55.9 38 30.4 44.3 13.0 0.00 0.00 35.9 80.6
4/17/21 - 2100 63.7 28 30.1 47.5 13.0 0.00 0.00 35.9 80.6
4/17/21 - 2000 72.7 22 32.0 51.3 13.1 0.00 0.00 35.9 80.6
4/17/21 - 1900 77.7 11 18.2 49.6 13.6 0.00 0.00 35.9 80.6
4/17/21 - 1800 78.4 10 18.4 49.9 13.5 0.00 0.00 35.9 80.6
4/17/21 - 1700 79.0 10 18.4 50.0 13.5 0.00 0.00 35.9 80.6
4/17/21 - 1600 79.2 11 20.8 50.5 13.5 0.00 0.00 35.9 80.6
4/17/21 - 1500 78.1 12 21.8 50.4 13.6 0.00 0.00 35.9 79.0
4/17/21 - 1400 77.4 13 22.1 50.2 13.6 0.00 0.00 35.9 78.5
4/17/21 - 1300 75.9 15 24.6 50.3 13.6 0.00 0.00 35.9 77.0
4/17/21 - 1200 74.5 17 26.6 50.4 13.6 0.00 0.00 35.9 75.5
4/17/21 - 1100 72.4 19 27.8 50.0 13.6 0.00 0.00 35.9 74.8
4/17/21 - 1000 66.6 33 36.2 50.7 13.7 0.00 0.00 35.9 71.8
4/17/21 - 0900 56.8 47 36.5 46.9 13.9 0.00 0.00 35.9 62.5
4/17/21 - 0800 46.1 63 34.1 40.9 14.0 0.00 0.00 35.9 52.2
4/17/21 - 0700 36.6 79 30.8 34.3 12.8 0.00 0.00 35.9 46.1
4/17/21 - 0600 38.2 78 31.8 35.6 12.8 0.00 0.00 36.3 46.1
4/17/21 - 0500 38.9 75 31.5 35.9 12.8 0.00 0.00 37.9 46.1
4/17/21 - 0400 40.6 68 30.9 36.7 12.9 0.00 0.00 39.8 46.1
4/17/21 - 0300 42.8 63 30.8 37.9 12.8 0.00 0.00 41.2 46.1
4/17/21 - 0200 44.5 59 31.0 38.9 12.9 0.00 0.00 43.2 46.1
4/17/21 - 0100 47.5 54 31.8 40.7 12.9 0.00 0.00 34.4 80.0
4/17/21 - 0000 51.1 49 32.6 42.9 13.0 0.00 0.00 34.4 80.0
4/16/21 - 2300 53.8 45 32.9 44.2 13.0 0.00 0.00 34.4 80.0
4/16/21 - 2200 56.5 41 33.3 45.6 13.0 0.00 0.00 34.4 80.0
4/16/21 - 2100 60.3 35 32.6 47.0 13.1 0.00 0.00 34.4 80.0
4/16/21 - 2000 68.2 23 29.1 48.9 13.1 0.00 0.00 34.4 80.0
4/16/21 - 1900 72.8 18 26.9 49.9 13.7 0.00 0.00 34.4 80.0
4/16/21 - 1800 75.8 19 30.5 51.8 13.5 0.00 0.00 34.4 80.0
4/16/21 - 1700 79.0 16 28.2 52.2 13.5 0.00 0.00 34.4 80.0
4/16/21 - 1600 78.6 14 25.9 51.5 13.5 0.00 0.00 34.4 79.8
4/16/21 - 1500 78.3 15 26.6 51.5 13.5 0.00 0.00 34.4 79.8
4/16/21 - 1400 76.7 17 27.9 51.4 13.6 0.00 0.00 34.4 78.4
4/16/21 - 1300 73.8 22 32.0 51.6 13.6 0.00 0.00 34.4 75.5
4/16/21 - 1200 69.1 31 36.9 51.8 13.6 0.00 0.00 34.4 72.4
4/16/21 - 1100 65.1 35 36.8 50.4 13.7 0.00 0.00 34.4 67.9
4/16/21 - 1000 60.2 39 35.4 47.9 13.8 0.00 0.00 34.4 62.5
4/16/21 - 0900 53.0 49 34.4 44.4 13.9 0.00 0.00 34.4 57.4
4/16/21 - 0800 42.6 72 34.0 38.9 14.1 0.00 0.00 34.4 50.0
4/16/21 - 0700 35.4 85 31.2 33.7 12.8 0.00 0.00 34.4 43.8
4/16/21 - 0600 35.3 85 31.2 33.6 12.8 0.00 0.00 34.4 43.8
4/16/21 - 0500 37.2 84 32.6 35.4 12.8 0.00 0.00 36.2 43.8
4/16/21 - 0400 38.6 79 32.6 36.2 12.8 0.00 0.00 37.3 43.8
4/16/21 - 0300 40.4 67 30.5 36.4 12.9 0.00 0.00 38.1 43.8
4/16/21 - 0200 42.7 61 30.3 37.6 12.9 0.00 0.00 41.4 43.8
4/16/21 - 0100 43.9 54 28.2 37.6 13.0 0.00 0.00 32.4 72.8
4/16/21 - 0000 44.4 59 30.9 38.8 12.9 0.00 0.00 32.4 72.8
4/15/21 - 2300 46.5 61 33.8 41.0 13.0 0.00 0.00 32.4 72.8
4/15/21 - 2200 50.6 51 32.7 42.7 13.0 0.00 0.00 32.4 72.8
4/15/21 - 2100 56.8 37 30.5 44.7 13.1 0.00 0.00 32.4 72.8
4/15/21 - 2000 63.2 21 22.6 45.2 13.1 0.00 0.00 32.4 72.8
4/15/21 - 1900 67.8 18 22.7 47.0 13.6 0.00 0.00 32.4 72.8
4/15/21 - 1800 69.9 18 24.5 48.3 13.6 0.00 0.00 32.4 72.8
4/15/21 - 1700 71.3 19 27.4 49.5 13.6 0.00 0.00 32.4 72.8
4/15/21 - 1600 71.6 20 28.0 49.8 13.6 0.00 0.00 32.4 72.8
4/15/21 - 1500 71.6 20 28.7 50.0 13.6 0.00 0.00 32.4 72.8
4/15/21 - 1400 70.0 23 30.1 49.8 13.6 0.00 0.00 32.4 71.8
4/15/21 - 1300 68.2 25 31.3 49.6 13.7 0.00 0.00 32.4 69.3
4/15/21 - 1200 65.7 30 33.2 49.3 13.7 0.00 0.00 32.4 67.0
4/15/21 - 1100 60.8 42 37.5 49.0 13.8 0.00 0.00 32.4 63.9
4/15/21 - 1000 56.4 51 38.5 47.6 13.9 0.00 0.00 32.4 58.7
4/15/21 - 0900 51.8 50 33.8 43.6 13.9 0.00 0.00 32.4 55.6
4/15/21 - 0800 40.8 66 30.2 36.5 14.1 0.00 0.00 32.4 46.3
4/15/21 - 0700 34.1 80 28.5 32.0 12.8 0.00 0.00 32.4 42.7
4/15/21 - 0600 33.4 78 27.4 31.1 12.8 0.00 0.00 32.4 42.7
4/15/21 - 0500 35.3 77 28.6 32.7 12.8 0.00 0.00 34.5 42.7
4/15/21 - 0400 36.2 74 28.7 33.3 12.8 0.00 0.00 35.9 42.7
4/15/21 - 0300 38.1 72 30.0 34.9 12.9 0.00 0.00 36.6 42.7
4/15/21 - 0200 41.2 62 29.4 36.5 12.9 0.00 0.00 39.2 42.7
4/15/21 - 0100 42.9 62 30.9 38.0 12.9 0.00 0.00 34.5 72.4
4/15/21 - 0000 45.0 55 29.6 38.7 13.0 0.00 0.00 34.5 72.4
4/14/21 - 2300 47.5 53 31.1 40.5 12.9 0.00 0.00 34.5 72.4
4/14/21 - 2200 50.8 45 30.4 41.9 13.0 0.00 0.00 34.5 72.4
4/14/21 - 2100 54.6 36 28.3 43.0 13.0 0.00 0.00 34.5 72.4
4/14/21 - 2000 62.5 26 26.8 46.0 13.1 0.00 0.00 34.5 72.4
4/14/21 - 1900 65.2 24 28.0 47.4 13.7 0.00 0.00 34.5 72.4
4/14/21 - 1800 66.8 24 29.2 48.4 13.6 0.00 0.00 34.5 72.4
4/14/21 - 1700 68.9 23 28.9 49.1 13.6 0.00 0.00 34.5 72.4
4/14/21 - 1600 71.1 17 23.6 48.5 13.6 0.00 0.00 34.5 72.4
4/14/21 - 1500 69.4 17 23.2 47.8 13.6 0.00 0.00 34.5 70.9
4/14/21 - 1400 67.8 20 24.7 47.6 13.6 0.00 0.00 34.5 68.8
4/14/21 - 1300 66.8 22 26.6 47.6 13.6 0.00 0.00 34.5 68.0
4/14/21 - 1200 63.6 27 28.5 47.0 13.7 0.00 0.00 34.5 65.8
4/14/21 - 1100 62.5 30 30.2 47.1 13.8 0.00 0.00 34.5 64.5
4/14/21 - 1000 59.6 35 31.6 46.4 13.8 0.00 0.00 34.5 61.8
4/14/21 - 0900 53.2 41 29.8 42.8 13.9 0.00 0.00 34.5 57.9
4/14/21 - 0800 40.8 60 27.9 35.7 14.1 0.00 0.00 34.5 47.9
4/14/21 - 0700 35.6 67 25.5 31.9 12.8 0.00 0.00 34.5 44.8
4/14/21 - 0600 37.3 64 26.2 33.1 12.8 0.00 0.00 36.4 44.8
4/14/21 - 0500 37.8 64 26.6 33.5 12.8 0.00 0.00 36.4 44.8
4/14/21 - 0400 38.0 65 27.3 33.9 12.8 0.00 0.00 36.6 44.8
4/14/21 - 0300 39.8 59 26.8 34.8 12.9 0.00 0.00 38.4 44.8
4/14/21 - 0200 43.1 53 27.1 36.8 12.9 0.00 0.00 41.4 44.8
4/14/21 - 0100 43.5 52 27.0 37.0 12.9 0.00 0.00 36.7 73.9
4/14/21 - 0000 44.5 51 27.3 37.6 13.0 0.00 0.00 36.7 73.9
4/13/21 - 2300 47.2 46 27.2 39.0 13.0 0.00 0.00 36.7 73.9
4/13/21 - 2200 50.8 39 26.5 40.6 13.0 0.00 0.00 36.7 73.9
4/13/21 - 2100 56.0 30 24.4 42.6 13.0 0.00 0.00 36.7 73.9
4/13/21 - 2000 61.2 24 24.4 44.8 13.1 0.00 0.00 36.7 73.9
4/13/21 - 1900 65.8 20 23.7 46.5 13.7 0.00 0.00 36.7 73.9
4/13/21 - 1800 69.3 20 26.1 48.4 13.6 0.00 0.00 36.7 73.9
4/13/21 - 1700 72.8 17 25.4 49.5 13.6 0.00 0.00 36.7 73.9
4/13/21 - 1600 72.5 19 28.4 50.2 13.6 0.00 0.00 36.7 73.5
4/13/21 - 1500 71.8 17 25.1 49.1 13.6 0.00 0.00 36.7 73.5
4/13/21 - 1400 70.0 19 25.8 48.6 13.6 0.00 0.00 36.7 71.0
4/13/21 - 1300 68.0 21 26.3 48.0 13.6 0.00 0.00 36.7 69.4
4/13/21 - 1200 64.3 25 27.2 46.9 13.7 0.00 0.00 36.7 66.8
4/13/21 - 1100 62.4 28 28.6 46.5 13.8 0.00 0.00 36.7 64.2
4/13/21 - 1000 60.8 27 26.4 45.2 13.8 0.00 0.00 36.7 62.9
4/13/21 - 0900 55.6 40 31.2 44.4 13.9 0.00 0.00 36.7 59.2
4/13/21 - 0800 43.8 57 29.3 37.9 14.0 0.00 0.00 36.7 48.4
4/13/21 - 0700 38.7 62 26.8 34.1 12.8 0.00 0.00 36.7 48.3
4/13/21 - 0600 40.1 59 27.1 35.1 12.8 0.00 0.00 38.4 48.3
4/13/21 - 0500 42.5 53 26.7 36.3 12.8 0.00 0.00 39.7 48.3
4/13/21 - 0400 44.7 52 28.0 38.0 12.8 0.00 0.00 43.1 48.3
4/13/21 - 0300 46.4 49 28.4 39.0 12.9 0.00 0.00 44.0 48.3
4/13/21 - 0200 46.1 51 29.0 39.0 12.9 0.00 0.00 44.0 48.3
4/13/21 - 0100 47.1 50 29.4 39.7 12.9 0.00 0.00 36.6 81.4
4/13/21 - 0000 49.2 48 30.2 41.0 13.0 0.00 0.00 36.6 81.4
4/12/21 - 2300 53.4 42 30.6 43.2 13.0 0.00 0.00 36.6 81.4
4/12/21 - 2200 55.8 35 28.8 43.7 13.0 0.00 0.00 36.6 81.4
4/12/21 - 2100 60.9 29 28.2 45.8 13.1 0.00 0.00 36.6 81.4
4/12/21 - 2000 70.0 25 32.2 50.5 13.1 0.00 0.00 36.6 81.4
4/12/21 - 1900 75.4 20 31.8 52.1 13.6 0.00 0.00 36.6 81.4
Max 85.6 85 38.9 54.6 14.1 0.00 0.00 46.5 86.8
Avg 57.8 40 29.3 44.1 13.3 0.00 - - -
Min 33.4 9 17.9 31.1 12.8 0.00 0.00 32.4 42.7
Total - - - - - 0.00 - - -